createdAt,value
2023-05-22T00:02:11.237Z,15.80
2023-05-22T00:04:38.303Z,15.80
2023-05-22T00:07:06.691Z,15.70
2023-05-22T00:09:33.639Z,15.80
2023-05-22T00:12:00.652Z,15.80
2023-05-22T00:14:27.738Z,15.80
2023-05-22T00:16:57.214Z,15.70
2023-05-22T00:19:24.350Z,15.70
2023-05-22T00:21:51.464Z,15.60
2023-05-22T00:24:18.524Z,15.60
2023-05-22T00:26:45.960Z,15.70
2023-05-22T00:29:13.016Z,15.70
2023-05-22T00:31:40.103Z,15.80
2023-05-22T00:34:07.349Z,15.90
2023-05-22T00:36:34.431Z,15.90
2023-05-22T00:39:01.380Z,15.90
2023-05-22T00:41:28.403Z,15.80
2023-05-22T00:43:55.489Z,15.80
2023-05-22T00:46:22.926Z,15.70
2023-05-22T00:48:50.118Z,15.80
2023-05-22T00:51:17.128Z,15.80
2023-05-22T00:53:45.131Z,15.90
2023-05-22T00:56:13.198Z,15.90
2023-05-22T00:58:40.137Z,15.80
2023-05-22T01:01:11.500Z,15.80
2023-05-22T01:03:44.933Z,15.70
2023-05-22T01:06:18.394Z,15.80
2023-05-22T01:08:45.491Z,15.90
2023-05-22T01:11:44.540Z,15.90
2023-05-22T01:14:17.379Z,15.80
2023-05-22T01:17:34.944Z,15.90
2023-05-22T01:20:23.329Z,15.90
2023-05-22T01:23:11.002Z,15.80
2023-05-22T01:26:08.328Z,15.80
2023-05-22T01:29:01.056Z,15.70
2023-05-22T01:31:31.492Z,15.70
2023-05-22T01:34:02.646Z,15.80
2023-05-22T01:36:35.109Z,15.60
2023-05-22T01:39:06.118Z,15.60
2023-05-22T01:41:34.417Z,15.60
2023-05-22T01:44:02.323Z,15.60
2023-05-22T01:46:30.368Z,15.70
2023-05-22T01:48:57.923Z,15.80
2023-05-22T01:51:33.891Z,15.70
2023-05-22T01:54:18.288Z,15.60
2023-05-22T01:56:56.758Z,15.70
2023-05-22T01:59:34.535Z,15.60
2023-05-22T02:02:09.187Z,15.50
2023-05-22T02:04:39.728Z,15.60
2023-05-22T02:07:07.574Z,15.50
2023-05-22T02:09:37.157Z,15.60
2023-05-22T02:12:04.630Z,15.60
2023-05-22T02:14:32.365Z,15.70
2023-05-22T02:17:02.977Z,15.90
2023-05-22T02:19:30.116Z,16.00
2023-05-22T02:21:57.277Z,15.90
2023-05-22T02:24:24.317Z,15.80
2023-05-22T02:26:51.556Z,15.80
2023-05-22T02:29:18.644Z,15.80
2023-05-22T02:31:45.903Z,15.60
2023-05-22T02:34:13.179Z,15.70
2023-05-22T02:36:41.085Z,15.80
2023-05-22T02:39:08.857Z,15.70
2023-05-22T02:41:35.736Z,15.60
2023-05-22T02:44:03.030Z,15.60
2023-05-22T02:46:30.220Z,15.50
2023-05-22T02:48:57.324Z,15.40
2023-05-22T02:51:24.379Z,15.50
2023-05-22T02:53:51.793Z,15.60
2023-05-22T02:56:19.017Z,15.60
2023-05-22T02:58:46.023Z,15.60
2023-05-22T03:01:13.106Z,15.50
2023-05-22T03:03:40.660Z,15.50
2023-05-22T03:06:08.929Z,15.50
2023-05-22T03:08:41.659Z,15.50
2023-05-22T03:11:08.842Z,15.40
2023-05-22T03:13:36.735Z,15.30
2023-05-22T03:16:03.875Z,15.30
2023-05-22T03:18:30.957Z,15.40
2023-05-22T03:20:57.799Z,15.40
2023-05-22T03:23:25.379Z,15.30
2023-05-22T03:25:52.475Z,15.30
2023-05-22T03:28:19.468Z,15.30
2023-05-22T03:30:46.785Z,15.40
2023-05-22T03:33:14.009Z,15.30
2023-05-22T03:35:43.390Z,15.40
2023-05-22T03:38:10.658Z,15.30
2023-05-22T03:40:38.003Z,15.50
2023-05-22T03:43:05.251Z,15.50
2023-05-22T03:45:32.374Z,15.50
2023-05-22T03:47:59.524Z,15.40
2023-05-22T03:50:26.431Z,15.40
2023-05-22T03:52:53.305Z,15.20
2023-05-22T03:55:20.187Z,15.40
2023-05-22T03:57:47.341Z,15.40
2023-05-22T04:00:17.118Z,15.60
2023-05-22T04:02:45.393Z,15.60
2023-05-22T04:05:12.743Z,15.60
2023-05-22T04:07:39.739Z,15.50
2023-05-22T04:10:07.190Z,15.70
2023-05-22T04:12:34.250Z,15.60
2023-05-22T04:15:01.564Z,15.50
2023-05-22T04:17:34.839Z,15.50
2023-05-22T04:20:01.859Z,15.40
2023-05-22T04:22:31.747Z,15.40
2023-05-22T04:24:58.790Z,15.50
2023-05-22T04:27:26.552Z,15.70
2023-05-22T04:29:53.699Z,15.60
2023-05-22T04:32:21.926Z,15.60
2023-05-22T04:34:52.536Z,15.60
2023-05-22T04:37:20.513Z,15.60
2023-05-22T04:39:47.660Z,15.70
2023-05-22T04:42:16.121Z,15.60
2023-05-22T04:44:44.398Z,15.60
2023-05-22T04:47:12.175Z,15.60
2023-05-22T04:49:39.228Z,15.50
2023-05-22T04:52:07.306Z,15.60
2023-05-22T04:54:34.612Z,15.60
2023-05-22T04:57:04.590Z,15.70
2023-05-22T04:59:40.222Z,15.60
2023-05-22T05:02:07.347Z,15.40
2023-05-22T05:04:34.291Z,15.60
2023-05-22T05:07:02.614Z,15.60
2023-05-22T05:09:29.913Z,15.70
2023-05-22T05:11:56.929Z,15.90
2023-05-22T05:14:24.097Z,15.90
2023-05-22T05:16:53.999Z,15.80
2023-05-22T05:19:21.702Z,15.80
2023-05-22T05:21:52.581Z,15.90
2023-05-22T05:24:19.677Z,15.90
2023-05-22T05:26:46.620Z,15.80
2023-05-22T05:29:13.925Z,15.90
2023-05-22T05:31:41.200Z,16.10
2023-05-22T05:34:08.269Z,16.20
2023-05-22T05:36:35.726Z,16.20
2023-05-22T05:39:02.652Z,16.20
2023-05-22T05:41:29.744Z,16.30
2023-05-22T05:44:00.320Z,16.20
2023-05-22T05:46:27.495Z,16.20
2023-05-22T05:48:54.718Z,16.20
2023-05-22T05:51:22.318Z,16.00
2023-05-22T05:53:49.820Z,15.90
2023-05-22T05:56:16.911Z,16.00
2023-05-22T05:58:43.959Z,16.00
2023-05-22T06:01:11.905Z,16.00
2023-05-22T06:03:41.376Z,16.10
2023-05-22T06:06:08.543Z,16.20
2023-05-22T06:08:36.079Z,16.10
2023-05-22T06:11:03.454Z,16.10
2023-05-22T06:13:30.444Z,16.30
2023-05-22T06:15:59.804Z,16.30
2023-05-22T06:18:28.788Z,16.30
2023-05-22T06:20:59.266Z,16.30
2023-05-22T06:23:26.505Z,16.40
2023-05-22T06:25:54.153Z,16.40
2023-05-22T06:28:21.428Z,16.40
2023-05-22T06:30:48.601Z,16.40
2023-05-22T06:33:16.031Z,16.50
2023-05-22T06:35:43.273Z,16.60
2023-05-22T06:38:10.272Z,16.60
2023-05-22T06:40:37.561Z,16.60
2023-05-22T06:43:04.776Z,16.50
2023-05-22T06:45:31.815Z,16.50
2023-05-22T06:47:58.994Z,16.50
2023-05-22T06:50:26.155Z,16.50
2023-05-22T06:52:53.250Z,16.50
2023-05-22T06:55:20.388Z,16.60
2023-05-22T06:57:48.407Z,16.60
2023-05-22T07:00:16.612Z,16.60
2023-05-22T07:02:44.021Z,16.60
2023-05-22T07:05:11.813Z,16.70
2023-05-22T07:07:38.729Z,16.80
2023-05-22T07:10:06.481Z,16.80
2023-05-22T07:12:33.499Z,16.60
2023-05-22T07:15:00.638Z,16.80
2023-05-22T07:17:27.700Z,16.80
2023-05-22T07:19:54.693Z,16.70
2023-05-22T07:22:21.601Z,16.80
2023-05-22T07:24:48.468Z,16.70
2023-05-22T07:27:15.671Z,16.80
2023-05-22T07:29:42.687Z,16.80
2023-05-22T07:32:09.688Z,16.90
2023-05-22T07:34:37.521Z,16.80
2023-05-22T07:37:09.283Z,17.00
2023-05-22T07:39:36.638Z,17.10
2023-05-22T07:42:05.708Z,17.10
2023-05-22T07:44:33.724Z,17.20
2023-05-22T07:47:00.920Z,17.20
2023-05-22T07:49:28.826Z,17.20
2023-05-22T07:51:55.977Z,17.30
2023-05-22T07:54:22.889Z,17.50
2023-05-22T07:56:50.903Z,17.50
2023-05-22T07:59:19.672Z,17.60
2023-05-22T08:01:46.961Z,17.50
2023-05-22T08:04:14.384Z,17.50
2023-05-22T08:06:43.903Z,17.70
2023-05-22T08:09:11.083Z,17.80
2023-05-22T08:11:40.785Z,17.90
2023-05-22T08:14:08.387Z,17.90
2023-05-22T08:16:35.835Z,17.90
2023-05-22T08:19:03.562Z,17.90
2023-05-22T08:21:33.350Z,18.10
2023-05-22T08:24:01.663Z,18.10
2023-05-22T08:26:30.128Z,18.30
2023-05-22T08:28:58.950Z,18.40
2023-05-22T08:31:26.131Z,18.30
2023-05-22T08:33:53.125Z,18.50
2023-05-22T08:36:20.366Z,18.40
2023-05-22T08:38:47.203Z,18.40
2023-05-22T08:41:15.773Z,18.30
2023-05-22T08:43:42.825Z,18.30
2023-05-22T08:46:10.717Z,18.30
2023-05-22T08:48:39.243Z,18.40
2023-05-22T08:51:07.706Z,18.40
2023-05-22T08:53:38.618Z,18.60
2023-05-22T08:56:07.318Z,18.60
2023-05-22T08:58:36.945Z,18.70
2023-05-22T09:01:06.368Z,18.80
2023-05-22T09:03:34.401Z,18.90
2023-05-22T09:06:02.557Z,19.00
2023-05-22T09:08:29.458Z,18.90
2023-05-22T09:10:57.539Z,18.90
2023-05-22T09:13:27.333Z,19.00
2023-05-22T09:15:59.592Z,19.10
2023-05-22T09:18:30.275Z,19.10
2023-05-22T09:20:58.481Z,19.20
2023-05-22T09:23:28.771Z,19.20
2023-05-22T09:26:00.175Z,19.10
2023-05-22T09:28:30.073Z,19.20
2023-05-22T09:30:59.448Z,19.20
2023-05-22T09:33:27.806Z,19.20
2023-05-22T09:35:56.654Z,19.10
2023-05-22T09:38:26.816Z,19.10
2023-05-22T09:40:54.857Z,19.20
2023-05-22T09:43:25.423Z,19.20
2023-05-22T09:46:01.904Z,19.20
2023-05-22T09:48:29.189Z,19.40
2023-05-22T09:50:59.997Z,19.40
2023-05-22T09:53:31.165Z,19.50
2023-05-22T09:56:00.460Z,19.50
2023-05-22T09:58:31.468Z,19.50
2023-05-22T10:00:59.385Z,19.60
2023-05-22T10:03:27.504Z,19.80
2023-05-22T10:05:58.619Z,20.00
2023-05-22T10:08:28.689Z,20.10
2023-05-22T10:10:56.192Z,20.10
2023-05-22T10:13:25.736Z,20.10
2023-05-22T10:15:53.501Z,20.10
2023-05-22T10:18:20.798Z,20.10
2023-05-22T10:20:49.171Z,20.00
2023-05-22T10:23:17.222Z,20.20
2023-05-22T10:25:45.685Z,20.10
2023-05-22T10:28:17.920Z,20.10
2023-05-22T10:30:56.267Z,20.00
2023-05-22T10:33:29.601Z,20.10
2023-05-22T10:36:04.117Z,20.20
2023-05-22T10:38:56.297Z,20.30
2023-05-22T10:41:24.551Z,20.40
2023-05-22T10:43:52.169Z,20.40
2023-05-22T10:46:19.524Z,20.30
2023-05-22T10:48:48.668Z,20.00
2023-05-22T10:51:21.207Z,20.20
2023-05-22T10:53:55.620Z,20.00
2023-05-22T10:56:25.343Z,20.10
2023-05-22T10:59:08.164Z,20.00
2023-05-22T11:01:38.085Z,20.00
2023-05-22T11:04:07.102Z,20.00
2023-05-22T11:06:41.628Z,20.10
2023-05-22T11:09:32.734Z,20.00
2023-05-22T11:12:27.408Z,20.10
2023-05-22T11:14:58.278Z,20.30
2023-05-22T11:17:32.907Z,20.30
2023-05-22T11:20:08.236Z,20.40
2023-05-22T11:22:38.013Z,20.40
2023-05-22T11:25:16.761Z,20.50
2023-05-22T11:27:44.861Z,20.50
2023-05-22T11:30:13.224Z,20.60
2023-05-22T11:32:44.967Z,20.60
2023-05-22T11:35:19.652Z,20.70
2023-05-22T11:37:47.596Z,20.60
2023-05-22T11:40:16.990Z,20.70
2023-05-22T11:42:44.566Z,20.60
2023-05-22T11:45:12.051Z,20.60
2023-05-22T11:47:39.294Z,20.80
2023-05-22T11:50:09.867Z,20.80
2023-05-22T11:52:38.213Z,20.70
2023-05-22T11:55:06.359Z,20.60
2023-05-22T11:57:34.434Z,20.50
2023-05-22T12:00:02.100Z,20.30
2023-05-22T12:02:30.116Z,20.30
2023-05-22T12:04:58.379Z,20.10
2023-05-22T12:07:27.622Z,20.10
2023-05-22T12:09:57.770Z,20.20
2023-05-22T12:12:26.127Z,20.30
2023-05-22T12:14:53.411Z,20.50
2023-05-22T12:17:20.545Z,20.60
2023-05-22T12:19:48.394Z,20.70
2023-05-22T12:22:15.694Z,20.60
2023-05-22T12:24:46.353Z,20.70
2023-05-22T12:27:14.992Z,20.70
2023-05-22T12:29:42.911Z,20.90
2023-05-22T12:32:11.763Z,20.50
2023-05-22T12:34:49.911Z,20.50
2023-05-22T12:37:28.382Z,20.60
2023-05-22T12:40:00.239Z,19.90
2023-05-22T12:42:28.451Z,19.60
2023-05-22T12:44:57.002Z,19.70
2023-05-22T12:47:26.594Z,19.80
2023-05-22T12:49:53.628Z,19.90
2023-05-22T12:52:20.883Z,20.00
2023-05-22T12:54:48.621Z,20.20
2023-05-22T12:57:17.057Z,20.10
2023-05-22T12:59:44.223Z,20.10
2023-05-22T13:02:11.437Z,20.30
2023-05-22T13:04:38.850Z,20.40
2023-05-22T13:07:06.184Z,20.30
2023-05-22T13:09:33.057Z,20.10
2023-05-22T13:12:00.258Z,19.90
2023-05-22T13:14:27.348Z,20.00
2023-05-22T13:16:54.485Z,20.10
2023-05-22T13:19:21.582Z,20.20
2023-05-22T13:21:48.558Z,20.30
2023-05-22T13:24:15.500Z,20.40
2023-05-22T13:26:42.516Z,20.40
2023-05-22T13:29:10.023Z,20.40
2023-05-22T13:31:38.982Z,20.40
2023-05-22T13:34:06.062Z,20.40
2023-05-22T13:36:34.122Z,20.20
2023-05-22T13:39:01.064Z,20.10
2023-05-22T13:41:27.992Z,20.00
2023-05-22T13:43:55.042Z,19.90
2023-05-22T13:46:23.427Z,19.90
2023-05-22T13:48:50.740Z,20.00
2023-05-22T13:51:18.002Z,19.90
2023-05-22T13:53:45.174Z,19.90
2023-05-22T13:56:12.022Z,20.00
2023-05-22T13:58:38.957Z,20.00
2023-05-22T14:01:06.766Z,20.10
2023-05-22T14:03:36.078Z,20.00
2023-05-22T14:06:02.951Z,20.30
2023-05-22T14:08:29.921Z,20.40
2023-05-22T14:10:56.842Z,20.50
2023-05-22T14:13:23.932Z,20.70
2023-05-22T14:15:51.155Z,20.80
2023-05-22T14:18:18.284Z,20.90
2023-05-22T14:20:46.162Z,21.00
2023-05-22T14:23:13.785Z,21.20
2023-05-22T14:25:44.506Z,21.20
2023-05-22T14:28:12.676Z,21.40
2023-05-22T14:30:40.302Z,21.40
2023-05-22T14:33:07.881Z,21.50
2023-05-22T14:35:35.174Z,21.60
2023-05-22T14:38:02.311Z,21.70
2023-05-22T14:40:29.372Z,21.60
2023-05-22T14:42:56.341Z,21.50
2023-05-22T14:45:23.895Z,21.50
2023-05-22T14:47:51.171Z,21.60
2023-05-22T14:50:20.322Z,21.60
2023-05-22T14:52:49.284Z,21.60
2023-05-22T14:55:17.123Z,21.50
2023-05-22T14:57:44.247Z,21.40
2023-05-22T15:00:12.412Z,21.30
2023-05-22T15:02:42.054Z,21.40
2023-05-22T15:05:10.077Z,21.40
2023-05-22T15:10:08.863Z,21.20
2023-05-22T15:12:35.891Z,21.20
2023-05-22T15:15:03.003Z,21.20
2023-05-22T15:17:30.201Z,21.00
2023-05-22T15:19:57.261Z,21.00
2023-05-22T15:22:24.161Z,21.20
2023-05-22T15:25:05.536Z,21.20
2023-05-22T15:27:34.705Z,21.10
2023-05-22T15:30:02.590Z,21.10
2023-05-22T15:32:31.494Z,21.10
2023-05-22T15:34:58.523Z,20.80
2023-05-22T15:37:25.508Z,20.80
2023-05-22T15:39:52.829Z,20.80
2023-05-22T15:42:20.876Z,20.90
2023-05-22T15:44:51.084Z,21.00
2023-05-22T15:47:18.115Z,21.00
2023-05-22T15:49:45.021Z,21.00
2023-05-22T15:52:12.018Z,20.60
2023-05-22T15:54:39.246Z,20.60
2023-05-22T15:57:06.516Z,20.80
2023-05-22T15:59:33.733Z,20.70
2023-05-22T16:02:01.550Z,20.70
2023-05-22T16:04:28.551Z,20.80
2023-05-22T16:06:55.614Z,20.90
2023-05-22T16:09:22.631Z,20.90
2023-05-22T16:11:49.618Z,20.90
2023-05-22T16:14:16.592Z,20.50
2023-05-22T16:16:43.892Z,20.40
2023-05-22T16:19:11.715Z,20.30
2023-05-22T16:21:39.152Z,20.20
2023-05-22T16:24:07.140Z,20.20
2023-05-22T16:26:34.384Z,20.10
2023-05-22T16:29:01.242Z,20.00
2023-05-22T16:31:28.866Z,20.00
2023-05-22T16:33:56.203Z,19.90
2023-05-22T16:36:25.113Z,19.90
2023-05-22T16:38:53.254Z,19.80
2023-05-22T16:41:20.195Z,19.60
2023-05-22T16:43:47.199Z,19.50
2023-05-22T16:46:14.172Z,19.40
2023-05-22T16:48:41.512Z,19.30
2023-05-22T16:51:09.258Z,19.30
2023-05-22T16:53:38.180Z,19.40
2023-05-22T16:56:05.888Z,19.50
2023-05-22T16:58:32.786Z,19.40
2023-05-22T17:00:59.915Z,19.40
2023-05-22T17:03:27.748Z,19.50
2023-05-22T17:05:55.112Z,19.40
2023-05-22T17:08:22.012Z,19.40
2023-05-22T17:10:49.072Z,19.30
2023-05-22T17:13:21.010Z,19.50
2023-05-22T17:15:51.835Z,19.60
2023-05-22T17:18:22.357Z,19.60
2023-05-22T17:20:50.242Z,19.60
2023-05-22T17:23:20.966Z,19.70
2023-05-22T17:25:48.742Z,19.70
2023-05-22T17:28:15.782Z,19.60
2023-05-22T17:30:45.269Z,19.80
2023-05-22T17:33:12.860Z,19.90
2023-05-22T17:35:39.851Z,19.80
2023-05-22T17:38:09.502Z,19.70
2023-05-22T17:40:44.696Z,19.80
2023-05-22T17:43:13.135Z,19.90
2023-05-22T17:45:40.797Z,19.90
2023-05-22T17:48:08.435Z,19.70
2023-05-22T17:50:35.444Z,19.70
2023-05-22T17:53:02.458Z,19.70
2023-05-22T17:55:29.385Z,19.60
2023-05-22T17:57:56.513Z,19.50
2023-05-22T18:00:23.633Z,19.50
2023-05-22T18:02:51.289Z,19.60
2023-05-22T18:05:21.570Z,19.60
2023-05-22T18:07:48.692Z,19.60
2023-05-22T18:10:15.735Z,19.60
2023-05-22T18:12:42.654Z,19.60
2023-05-22T18:15:12.374Z,19.40
2023-05-22T18:17:41.192Z,19.40
2023-05-22T18:20:12.014Z,19.30
2023-05-22T18:22:40.140Z,19.20
2023-05-22T18:25:07.696Z,19.00
2023-05-22T18:27:37.058Z,19.00
2023-05-22T18:30:05.337Z,19.00
2023-05-22T18:32:32.501Z,19.00
2023-05-22T18:35:02.510Z,18.90
2023-05-22T18:37:29.678Z,18.80
2023-05-22T18:39:56.578Z,18.90
2023-05-22T18:42:23.803Z,18.80
2023-05-22T18:44:50.966Z,18.60
2023-05-22T18:47:18.168Z,18.70
2023-05-22T18:49:46.795Z,18.60
2023-05-22T18:52:13.938Z,18.60
2023-05-22T18:54:41.023Z,18.70
2023-05-22T18:57:08.072Z,18.60
2023-05-22T18:59:35.038Z,18.50
2023-05-22T19:02:02.478Z,18.40
2023-05-22T19:04:31.655Z,18.40
2023-05-22T19:06:59.110Z,18.30
2023-05-22T19:09:26.135Z,18.30
2023-05-22T19:11:53.029Z,18.00
2023-05-22T19:14:20.117Z,18.10
2023-05-22T19:16:47.028Z,18.00
2023-05-22T19:19:14.897Z,18.00
2023-05-22T19:21:42.113Z,17.80
2023-05-22T19:24:09.358Z,17.90
2023-05-22T19:26:37.279Z,17.80
2023-05-22T19:29:04.318Z,17.70
2023-05-22T19:31:31.326Z,17.60
2023-05-22T19:33:58.352Z,17.60
2023-05-22T19:36:25.644Z,17.50
2023-05-22T19:38:53.585Z,17.60
2023-05-22T19:41:20.896Z,17.60
2023-05-22T19:43:47.944Z,17.40
2023-05-22T19:46:14.887Z,17.40
2023-05-22T19:48:42.049Z,17.40
2023-05-22T19:51:09.176Z,17.20
2023-05-22T19:53:36.580Z,17.30
2023-05-22T19:56:05.953Z,17.30
2023-05-22T19:58:32.992Z,17.30
2023-05-22T20:01:00.321Z,17.00
2023-05-22T20:03:28.148Z,17.00
2023-05-22T20:05:55.755Z,17.10
2023-05-22T20:08:23.364Z,17.10
2023-05-22T20:10:52.851Z,17.00
2023-05-22T20:13:20.108Z,17.00
2023-05-22T20:15:47.894Z,17.00
2023-05-22T20:18:15.818Z,16.90
2023-05-22T20:20:42.891Z,17.00
2023-05-22T20:23:09.946Z,17.10
2023-05-22T20:25:37.870Z,17.00
2023-05-22T20:28:05.388Z,17.00
2023-05-22T20:30:32.654Z,17.10
2023-05-22T20:32:59.575Z,17.10
2023-05-22T20:35:26.958Z,17.10
2023-05-22T20:37:53.901Z,17.00
2023-05-22T20:40:20.922Z,17.00
2023-05-22T20:42:47.928Z,17.10
2023-05-22T20:45:16.073Z,17.20
2023-05-22T20:47:43.408Z,17.20
2023-05-22T20:50:11.253Z,17.00
2023-05-22T20:52:38.294Z,16.90
2023-05-22T20:55:06.015Z,16.80
2023-05-22T20:57:32.895Z,16.90
2023-05-22T20:59:59.792Z,16.90
2023-05-22T21:02:26.870Z,16.80
2023-05-22T21:04:54.321Z,16.90
2023-05-22T21:07:21.377Z,16.90
2023-05-22T21:09:48.632Z,16.80
2023-05-22T21:12:15.805Z,16.90
2023-05-22T21:14:44.158Z,16.90
2023-05-22T21:17:11.227Z,16.80
2023-05-22T21:19:38.233Z,16.80
2023-05-22T21:22:05.569Z,16.90
2023-05-22T21:24:34.470Z,16.90
2023-05-22T21:27:01.689Z,17.00
2023-05-22T21:29:28.760Z,17.00
2023-05-22T21:31:55.837Z,17.10
2023-05-22T21:34:23.025Z,17.00
2023-05-22T21:36:50.618Z,16.90
2023-05-22T21:39:18.365Z,16.80
2023-05-22T21:41:45.682Z,16.80
2023-05-22T21:44:13.188Z,16.90
2023-05-22T21:46:41.213Z,16.80
2023-05-22T21:49:09.616Z,16.70
2023-05-22T21:51:37.030Z,16.80
2023-05-22T21:54:04.514Z,16.90
2023-05-22T21:56:31.563Z,16.80
2023-05-22T21:58:58.401Z,16.90
2023-05-22T22:01:25.668Z,16.90
2023-05-22T22:03:54.645Z,16.90
2023-05-22T22:06:21.723Z,16.90
2023-05-22T22:08:49.498Z,16.80
2023-05-22T22:11:16.352Z,16.80
2023-05-22T22:13:43.354Z,16.80
2023-05-22T22:16:10.529Z,16.80
2023-05-22T22:18:37.523Z,16.70
2023-05-22T22:21:04.801Z,16.50
2023-05-22T22:23:32.745Z,16.50
2023-05-22T22:25:59.914Z,16.50
2023-05-22T22:28:27.031Z,16.40
2023-05-22T22:30:55.272Z,16.60
2023-05-22T22:33:23.007Z,16.60
2023-05-22T22:35:50.007Z,16.50
2023-05-22T22:38:17.133Z,16.40
2023-05-22T22:40:44.181Z,16.40
2023-05-22T22:43:11.067Z,16.40
2023-05-22T22:45:40.649Z,16.50
2023-05-22T22:48:08.029Z,16.50
2023-05-22T22:50:34.928Z,16.50
2023-05-22T22:53:01.954Z,16.40
2023-05-22T22:55:29.183Z,16.30
2023-05-22T22:57:56.647Z,16.20
2023-05-22T23:00:24.013Z,16.20
2023-05-22T23:02:52.735Z,16.20
2023-05-22T23:05:20.633Z,16.10
2023-05-22T23:07:49.228Z,16.20
2023-05-22T23:10:16.303Z,16.20
2023-05-22T23:12:43.354Z,16.00
2023-05-22T23:15:13.132Z,16.00
2023-05-22T23:17:42.063Z,15.90
2023-05-22T23:20:09.857Z,15.80
2023-05-22T23:22:36.900Z,15.80
2023-05-22T23:25:04.081Z,15.90
2023-05-22T23:27:31.733Z,15.90
2023-05-22T23:29:58.688Z,16.00
2023-05-22T23:32:25.759Z,15.80
2023-05-22T23:34:52.875Z,15.80
2023-05-22T23:37:19.971Z,15.90
2023-05-22T23:39:46.903Z,15.80
2023-05-22T23:42:16.107Z,15.70
2023-05-22T23:44:43.148Z,15.60
2023-05-22T23:47:10.386Z,15.60
2023-05-22T23:49:37.490Z,15.50
2023-05-22T23:52:04.639Z,15.50
2023-05-22T23:54:31.562Z,15.60
2023-05-22T23:56:58.600Z,15.50
2023-05-22T23:59:25.610Z,15.60
